createdAt,value
2023-02-04T00:00:38.760Z,8.80
2023-02-04T00:03:26.802Z,9.20
2023-02-04T00:05:54.916Z,15.60
2023-02-04T00:08:22.946Z,9.20
2023-02-04T00:10:50.933Z,11.80
2023-02-04T00:13:19.023Z,7.50
2023-02-04T00:15:47.056Z,10.70
2023-02-04T00:18:15.194Z,6.50
2023-02-04T00:20:43.171Z,8.30
2023-02-04T00:23:11.121Z,6.30
2023-02-04T00:25:39.264Z,8.70
2023-02-04T00:28:07.388Z,6.20
2023-02-04T00:30:35.393Z,8.70
2023-02-04T00:33:03.942Z,6.50
2023-02-04T00:35:32.018Z,6.40
2023-02-04T00:38:00.110Z,5.20
2023-02-04T00:40:28.604Z,9.00
2023-02-04T00:42:56.859Z,5.50
2023-02-04T00:45:25.302Z,5.60
2023-02-04T00:47:53.476Z,3.70
2023-02-04T00:50:21.433Z,3.70
2023-02-04T00:52:49.950Z,3.60
2023-02-04T00:55:18.689Z,3.60
2023-02-04T00:57:49.591Z,4.40
2023-02-04T01:00:18.186Z,3.30
2023-02-04T01:02:46.348Z,3.70
2023-02-04T01:05:14.905Z,3.00
2023-02-04T01:07:43.033Z,2.90
2023-02-04T01:10:11.856Z,2.70
2023-02-04T01:12:39.909Z,2.70
2023-02-04T01:15:08.974Z,1.70
2023-02-04T01:17:37.048Z,2.90
2023-02-04T01:20:05.364Z,2.70
2023-02-04T01:22:33.356Z,1.70
2023-02-04T01:25:01.566Z,2.60
2023-02-04T01:27:44.229Z,2.90
2023-02-04T01:30:15.145Z,2.60
2023-02-04T01:32:43.143Z,2.80
2023-02-04T01:35:11.269Z,2.40
2023-02-04T01:37:39.995Z,3.00
2023-02-04T01:40:10.144Z,2.60
2023-02-04T01:42:38.485Z,2.80
2023-02-04T01:45:08.047Z,2.40
2023-02-04T01:47:36.682Z,2.60
2023-02-04T01:50:10.343Z,2.10
2023-02-04T01:52:39.869Z,3.00
2023-02-04T01:55:20.122Z,2.50
2023-02-04T01:57:50.812Z,2.20
2023-02-04T02:00:30.794Z,2.80
2023-02-04T02:03:00.368Z,1.50
2023-02-04T02:05:37.924Z,2.40
2023-02-04T02:08:07.712Z,2.70
2023-02-04T02:10:38.089Z,2.40
2023-02-04T02:13:08.513Z,2.50
2023-02-04T02:15:40.870Z,3.10
2023-02-04T02:18:09.985Z,2.70
2023-02-04T02:20:38.305Z,3.20
2023-02-04T02:23:47.507Z,4.50
2023-02-04T02:26:18.386Z,3.80
2023-02-04T02:28:49.905Z,4.60
2023-02-04T02:31:20.951Z,4.80
2023-02-04T02:33:49.446Z,4.70
2023-02-04T02:36:17.843Z,4.50
2023-02-04T02:38:46.002Z,5.10
2023-02-04T02:41:14.103Z,3.90
2023-02-04T02:43:42.203Z,4.20
2023-02-04T02:46:10.601Z,4.30
2023-02-04T02:48:38.598Z,4.20
2023-02-04T02:51:06.610Z,4.60
2023-02-04T02:53:34.623Z,4.80
2023-02-04T02:56:04.762Z,4.90
2023-02-04T02:58:36.482Z,3.70
2023-02-04T03:01:08.795Z,3.30
2023-02-04T03:03:45.273Z,5.90
2023-02-04T03:06:26.409Z,3.70
2023-02-04T03:08:56.860Z,4.00
2023-02-04T03:11:26.163Z,3.40
2023-02-04T03:13:54.436Z,4.30
2023-02-04T03:16:22.534Z,3.60
2023-02-04T03:18:50.685Z,3.40
2023-02-04T03:21:18.699Z,3.50
2023-02-04T03:23:46.745Z,3.60
2023-02-04T03:26:14.922Z,3.50
2023-02-04T03:28:43.190Z,3.10
2023-02-04T03:31:11.535Z,3.90
2023-02-04T03:33:39.602Z,4.00
2023-02-04T03:36:09.746Z,4.60
2023-02-04T03:38:38.021Z,3.60
2023-02-04T03:41:06.129Z,4.10
2023-02-04T03:43:34.229Z,2.80
2023-02-04T03:46:02.404Z,3.10
2023-02-04T03:48:30.570Z,3.00
2023-02-04T03:50:58.502Z,3.60
2023-02-04T03:53:26.505Z,2.30
2023-02-04T03:55:54.500Z,2.70
2023-02-04T03:58:23.892Z,3.20
2023-02-04T04:00:51.872Z,3.60
2023-02-04T04:03:19.875Z,2.80
2023-02-04T04:05:47.853Z,3.90
2023-02-04T04:08:16.034Z,3.60
2023-02-04T04:10:44.032Z,2.90
2023-02-04T04:13:11.992Z,2.50
2023-02-04T04:15:39.948Z,3.50
2023-02-04T04:18:08.103Z,3.40
2023-02-04T04:20:36.021Z,2.80
2023-02-04T04:23:03.954Z,2.70
2023-02-04T04:25:31.940Z,2.60
2023-02-04T04:28:00.319Z,2.40
2023-02-04T04:30:28.461Z,2.50
2023-02-04T04:32:56.542Z,2.80
2023-02-04T04:35:24.488Z,3.10
2023-02-04T04:37:52.434Z,2.40
2023-02-04T04:40:20.394Z,3.30
2023-02-04T04:42:48.359Z,2.50
2023-02-04T04:45:16.444Z,2.30
2023-02-04T04:47:44.408Z,3.40
2023-02-04T04:50:12.645Z,3.30
2023-02-04T04:52:40.620Z,2.10
2023-02-04T04:55:09.386Z,2.50
2023-02-04T04:57:37.580Z,2.80
2023-02-04T05:00:08.128Z,2.90
2023-02-04T05:02:36.164Z,2.70
2023-02-04T05:05:04.439Z,2.20
2023-02-04T05:07:32.554Z,3.10
2023-02-04T05:10:00.587Z,2.50
2023-02-04T05:12:28.615Z,3.00
2023-02-04T05:14:56.704Z,2.70
2023-02-04T05:17:24.671Z,2.40
2023-02-04T05:19:52.612Z,3.00
2023-02-04T05:22:20.624Z,2.60
2023-02-04T05:24:48.654Z,3.10
2023-02-04T05:27:16.576Z,2.50
2023-02-04T05:29:44.623Z,2.70
2023-02-04T05:32:12.765Z,2.50
2023-02-04T05:34:40.810Z,2.30
2023-02-04T05:37:08.725Z,2.30
2023-02-04T05:39:36.760Z,2.30
2023-02-04T05:42:04.725Z,2.70
2023-02-04T05:44:32.740Z,1.90
2023-02-04T05:47:00.727Z,2.80
2023-02-04T05:49:28.749Z,3.70
2023-02-04T05:51:56.683Z,2.60
2023-02-04T05:54:24.774Z,3.30
2023-02-04T05:56:52.765Z,2.90
2023-02-04T05:59:20.736Z,3.10
2023-02-04T06:01:48.846Z,2.90
2023-02-04T06:04:17.065Z,3.40
2023-02-04T06:06:45.352Z,2.40
2023-02-04T06:09:13.744Z,1.60
2023-02-04T06:11:41.718Z,3.20
2023-02-04T06:14:10.841Z,1.90
2023-02-04T06:16:38.934Z,2.60
2023-02-04T06:19:06.936Z,2.20
2023-02-04T06:21:34.883Z,2.70
2023-02-04T06:24:04.240Z,2.50
2023-02-04T06:26:33.525Z,2.80
2023-02-04T06:29:01.811Z,4.30
2023-02-04T06:31:30.039Z,3.20
2023-02-04T06:33:58.256Z,3.90
2023-02-04T06:36:26.243Z,3.50
2023-02-04T06:38:54.881Z,3.50
2023-02-04T06:41:22.829Z,3.80
2023-02-04T06:43:50.848Z,2.20
2023-02-04T06:46:18.932Z,2.00
2023-02-04T06:48:46.942Z,1.80
2023-02-04T06:51:15.445Z,2.10
2023-02-04T06:53:45.912Z,2.00
2023-02-04T06:56:14.044Z,1.60
2023-02-04T06:58:42.158Z,1.80
2023-02-04T07:01:10.191Z,1.20
2023-02-04T07:03:38.136Z,1.70
2023-02-04T07:06:06.178Z,1.30
2023-02-04T07:08:34.188Z,1.10
2023-02-04T07:11:02.121Z,1.70
2023-02-04T07:13:30.117Z,1.00
2023-02-04T07:15:58.239Z,1.90
2023-02-04T07:18:26.303Z,1.30
2023-02-04T07:20:54.355Z,1.30
2023-02-04T07:23:24.371Z,1.80
2023-02-04T07:25:53.827Z,1.00
2023-02-04T07:28:22.234Z,1.10
2023-02-04T07:30:50.616Z,1.90
2023-02-04T07:33:18.836Z,1.10
2023-02-04T07:35:46.850Z,1.00
2023-02-04T07:38:14.921Z,1.40
2023-02-04T07:40:42.838Z,1.60
2023-02-04T07:43:11.102Z,1.00
2023-02-04T07:45:39.605Z,1.00
2023-02-04T07:48:07.740Z,1.10
2023-02-04T07:50:35.805Z,0.50
2023-02-04T07:53:03.961Z,1.10
2023-02-04T07:55:32.140Z,1.20
2023-02-04T07:58:00.123Z,0.70
2023-02-04T08:00:28.250Z,1.90
2023-02-04T08:02:56.782Z,0.90
2023-02-04T08:05:24.915Z,1.10
2023-02-04T08:07:52.911Z,0.90
2023-02-04T08:10:21.526Z,0.80
2023-02-04T08:12:49.606Z,0.80
2023-02-04T08:15:17.785Z,1.00
2023-02-04T08:17:45.776Z,0.80
2023-02-04T08:20:13.832Z,1.10
2023-02-04T08:22:41.845Z,1.00
2023-02-04T08:25:12.094Z,0.80
2023-02-04T08:27:40.335Z,1.00
2023-02-04T08:30:10.162Z,1.40
2023-02-04T08:32:39.266Z,1.30
2023-02-04T08:35:08.943Z,1.30
2023-02-04T08:37:37.016Z,1.10
2023-02-04T08:40:05.663Z,0.80
2023-02-04T08:42:34.915Z,1.70
2023-02-04T08:45:03.970Z,1.40
2023-02-04T08:47:31.996Z,1.80
2023-02-04T08:50:00.049Z,1.10
2023-02-04T08:52:28.123Z,1.40
2023-02-04T08:54:56.159Z,1.30
2023-02-04T08:57:24.203Z,1.60
2023-02-04T08:59:52.252Z,1.70
2023-02-04T09:02:20.339Z,1.40
2023-02-04T09:04:48.585Z,1.00
2023-02-04T09:07:16.826Z,0.80
2023-02-04T09:09:44.805Z,0.60
2023-02-04T09:12:13.026Z,1.20
2023-02-04T09:14:41.004Z,0.80
2023-02-04T09:17:09.085Z,0.50
2023-02-04T09:19:37.086Z,0.80
2023-02-04T09:22:05.333Z,0.10
2023-02-04T09:24:33.469Z,0.50
2023-02-04T09:27:01.553Z,2.50
2023-02-04T09:29:29.596Z,0.50
2023-02-04T09:31:58.096Z,0.60
2023-02-04T09:34:26.157Z,1.00
2023-02-04T09:36:54.188Z,0.80
2023-02-04T09:39:22.285Z,0.70
2023-02-04T09:41:54.026Z,0.70
2023-02-04T09:44:26.332Z,0.90
2023-02-04T09:46:58.463Z,0.70
2023-02-04T09:49:28.314Z,0.50
2023-02-04T09:51:56.857Z,0.70
2023-02-04T09:54:25.208Z,0.70
2023-02-04T09:56:53.303Z,0.80
2023-02-04T09:59:23.917Z,0.70
2023-02-04T10:02:00.700Z,0.50
2023-02-04T10:04:29.109Z,0.50
2023-02-04T10:07:00.670Z,0.90
2023-02-04T10:09:29.021Z,1.00
2023-02-04T10:11:57.177Z,0.70
2023-02-04T10:14:25.185Z,0.70
2023-02-04T10:17:01.215Z,0.80
2023-02-04T10:19:30.972Z,1.80
2023-02-04T10:21:59.811Z,2.00
2023-02-04T10:24:30.618Z,1.20
2023-02-04T10:27:11.092Z,0.60
2023-02-04T10:29:40.376Z,2.50
2023-02-04T10:32:31.164Z,0.70
2023-02-04T10:35:01.791Z,0.70
2023-02-04T10:37:31.900Z,1.10
2023-02-04T10:39:59.984Z,0.70
2023-02-04T10:42:30.849Z,0.80
2023-02-04T10:44:58.940Z,1.10
2023-02-04T10:47:31.094Z,0.50
2023-02-04T10:50:17.572Z,0.80
2023-02-04T10:52:51.171Z,0.90
2023-02-04T10:55:24.108Z,0.80
2023-02-04T10:57:53.302Z,0.70
2023-02-04T11:00:25.896Z,0.50
2023-02-04T11:03:10.266Z,0.70
2023-02-04T11:05:38.874Z,0.60
2023-02-04T11:08:30.807Z,0.70
2023-02-04T11:11:04.923Z,0.40
2023-02-04T11:13:45.706Z,0.40
2023-02-04T11:16:23.141Z,0.60
2023-02-04T11:18:59.367Z,0.50
2023-02-04T11:21:47.671Z,0.30
2023-02-04T11:24:15.717Z,1.30
2023-02-04T11:26:45.188Z,3.30
2023-02-04T11:29:15.962Z,0.80
2023-02-04T11:31:50.287Z,0.80
2023-02-04T11:34:19.364Z,0.60
2023-02-04T11:37:12.020Z,0.40
2023-02-04T11:39:47.997Z,0.80
2023-02-04T11:42:56.526Z,0.90
2023-02-04T11:45:30.846Z,0.50
2023-02-04T11:48:04.324Z,0.80
2023-02-04T11:50:38.551Z,0.50
2023-02-04T11:53:06.718Z,0.60
2023-02-04T11:55:42.824Z,0.70
2023-02-04T11:58:18.473Z,0.60
2023-02-04T12:00:47.050Z,0.60
2023-02-04T12:03:35.810Z,0.40
2023-02-04T12:06:04.285Z,0.50
2023-02-04T12:08:36.168Z,0.50
2023-02-04T12:11:30.435Z,0.70
2023-02-04T12:14:08.513Z,0.50
2023-02-04T12:16:56.277Z,0.50
2023-02-04T12:19:26.713Z,0.80
2023-02-04T12:21:55.859Z,0.80
2023-02-04T12:24:23.894Z,1.80
2023-02-04T12:26:51.898Z,0.50
2023-02-04T12:29:19.891Z,0.30
2023-02-04T12:31:48.071Z,0.30
2023-02-04T12:34:17.520Z,0.70
2023-02-04T12:36:45.534Z,0.70
2023-02-04T12:39:13.665Z,0.30
2023-02-04T12:41:41.625Z,0.90
2023-02-04T12:44:09.881Z,0.40
2023-02-04T12:46:37.927Z,0.40
2023-02-04T12:49:07.382Z,0.70
2023-02-04T12:51:36.965Z,0.50
2023-02-04T12:54:04.998Z,1.20
2023-02-04T12:56:33.092Z,1.10
2023-02-04T12:59:01.079Z,0.50
2023-02-04T13:01:29.168Z,0.40
2023-02-04T13:03:58.061Z,0.50
2023-02-04T13:06:28.247Z,0.40
2023-02-04T13:08:56.285Z,0.20
2023-02-04T13:11:24.235Z,0.50
2023-02-04T13:13:52.195Z,0.30
2023-02-04T13:16:22.833Z,0.70
2023-02-04T13:18:51.052Z,0.90
2023-02-04T13:21:19.289Z,0.70
2023-02-04T13:23:47.252Z,0.70
2023-02-04T13:26:15.190Z,1.00
2023-02-04T13:28:43.211Z,1.00
2023-02-04T13:31:11.318Z,1.10
2023-02-04T13:33:39.349Z,1.40
2023-02-04T13:36:07.742Z,0.90
2023-02-04T13:38:36.441Z,1.50
2023-02-04T13:41:04.721Z,1.00
2023-02-04T13:43:32.864Z,1.40
2023-02-04T13:46:02.872Z,1.20
2023-02-04T13:48:31.014Z,0.90
2023-02-04T13:50:59.122Z,0.90
2023-02-04T13:53:31.078Z,0.90
2023-02-04T13:55:59.728Z,1.50
2023-02-04T13:58:28.021Z,1.10
2023-02-04T14:00:57.583Z,0.90
2023-02-04T14:03:29.935Z,0.80
2023-02-04T14:05:57.865Z,1.00
2023-02-04T14:08:25.827Z,1.30
2023-02-04T14:10:54.074Z,1.10
2023-02-04T14:13:22.099Z,0.70
2023-02-04T14:15:50.194Z,1.20
2023-02-04T14:18:18.658Z,1.00
2023-02-04T14:20:46.751Z,1.00
2023-02-04T14:23:14.828Z,1.60
2023-02-04T14:25:42.838Z,0.60
2023-02-04T14:28:10.882Z,1.30
2023-02-04T14:30:38.867Z,1.00
2023-02-04T14:33:08.917Z,1.20
2023-02-04T14:35:37.616Z,0.80
2023-02-04T14:38:05.968Z,0.90
2023-02-04T14:40:34.183Z,1.30
2023-02-04T14:43:02.339Z,0.90
2023-02-04T14:45:30.806Z,1.60
2023-02-04T14:48:00.555Z,3.60
2023-02-04T14:50:30.117Z,4.60
2023-02-04T14:52:58.529Z,0.50
2023-02-04T14:55:27.708Z,0.70
2023-02-04T14:57:55.724Z,1.30
2023-02-04T15:00:24.519Z,1.00
2023-02-04T15:02:52.761Z,0.70
2023-02-04T15:05:20.827Z,0.90
2023-02-04T15:07:48.792Z,0.50
2023-02-04T15:10:16.860Z,0.80
2023-02-04T15:12:45.002Z,0.90
2023-02-04T15:15:12.939Z,1.80
2023-02-04T15:17:40.957Z,1.90
2023-02-04T15:20:09.717Z,1.80
2023-02-04T15:22:38.098Z,1.70
2023-02-04T15:25:06.682Z,1.60
2023-02-04T15:27:34.719Z,2.20
2023-02-04T15:30:02.912Z,2.00
2023-02-04T15:32:31.787Z,1.30
2023-02-04T15:34:59.821Z,1.50
2023-02-04T15:37:28.126Z,1.20
2023-02-04T15:39:57.120Z,1.30
2023-02-04T15:42:28.303Z,1.50
2023-02-04T15:44:56.399Z,1.10
2023-02-04T15:47:24.549Z,1.30
2023-02-04T15:49:52.574Z,1.10
2023-02-04T15:52:25.043Z,0.90
2023-02-04T15:57:21.745Z,2.00
2023-02-04T15:59:50.841Z,0.90
2023-02-04T16:02:18.897Z,1.30
2023-02-04T16:04:47.995Z,1.10
2023-02-04T16:07:16.145Z,0.80
2023-02-04T16:09:44.207Z,1.50
2023-02-04T16:12:12.158Z,1.50
2023-02-04T16:14:40.135Z,1.10
2023-02-04T16:17:09.597Z,1.60
2023-02-04T16:19:37.623Z,1.10
2023-02-04T16:22:06.330Z,1.10
2023-02-04T16:24:34.727Z,0.90
2023-02-04T16:27:02.827Z,1.70
2023-02-04T16:29:31.078Z,2.10
2023-02-04T16:31:59.182Z,3.10
2023-02-04T16:34:28.268Z,2.40
2023-02-04T16:36:56.279Z,0.80
2023-02-04T16:39:24.419Z,1.10
2023-02-04T16:41:52.469Z,1.30
2023-02-04T16:44:20.512Z,1.00
2023-02-04T16:46:50.694Z,1.20
2023-02-04T16:49:18.910Z,1.40
2023-02-04T16:51:46.886Z,1.20
2023-02-04T16:54:15.051Z,1.50
2023-02-04T16:56:43.135Z,1.00
2023-02-04T16:59:11.233Z,0.40
2023-02-04T17:01:39.366Z,1.50
2023-02-04T17:04:07.427Z,1.40
2023-02-04T17:06:35.899Z,1.10
2023-02-04T17:09:04.228Z,1.20
2023-02-04T17:11:32.770Z,1.60
2023-02-04T17:14:09.152Z,1.50
2023-02-04T17:16:37.499Z,1.60
2023-02-04T17:19:05.570Z,1.40
2023-02-04T17:21:33.704Z,1.70
2023-02-04T17:24:04.237Z,1.50
2023-02-04T17:26:37.674Z,1.80
2023-02-04T17:29:15.232Z,1.70
2023-02-04T17:31:43.776Z,1.80
2023-02-04T17:34:11.951Z,2.30
2023-02-04T17:36:39.970Z,2.30
2023-02-04T17:39:08.073Z,1.80
2023-02-04T17:41:36.392Z,1.70
2023-02-04T17:44:04.888Z,0.90
2023-02-04T17:46:34.326Z,1.70
2023-02-04T17:49:02.620Z,1.70
2023-02-04T17:51:36.742Z,1.80
2023-02-04T17:54:04.814Z,1.80
2023-02-04T17:56:32.854Z,1.80
2023-02-04T17:59:01.120Z,1.60
2023-02-04T18:01:32.150Z,1.40
2023-02-04T18:04:00.501Z,1.10
2023-02-04T18:06:31.717Z,7.70
2023-02-04T18:09:06.721Z,1.80
2023-02-04T18:11:40.424Z,1.70
2023-02-04T18:14:30.572Z,1.80
2023-02-04T18:17:00.447Z,1.60
2023-02-04T18:19:31.625Z,2.30
2023-02-04T18:22:00.233Z,2.30
2023-02-04T18:24:39.648Z,1.70
2023-02-04T18:27:24.680Z,2.00
2023-02-04T18:29:56.530Z,1.70
2023-02-04T18:32:39.993Z,1.40
2023-02-04T18:35:25.671Z,2.40
2023-02-04T18:37:53.830Z,2.20
2023-02-04T18:40:27.773Z,2.30
2023-02-04T18:43:17.681Z,2.00
2023-02-04T18:45:45.943Z,2.60
2023-02-04T18:48:30.340Z,2.90
2023-02-04T18:50:59.256Z,3.20
2023-02-04T18:53:28.729Z,2.20
2023-02-04T18:56:03.439Z,3.60
2023-02-04T18:58:43.347Z,2.40
2023-02-04T19:01:18.157Z,3.80
2023-02-04T19:04:06.091Z,2.90
2023-02-04T19:06:43.919Z,3.40
2023-02-04T19:09:28.694Z,3.10
2023-02-04T19:12:13.262Z,3.30
2023-02-04T19:14:44.456Z,4.10
2023-02-04T19:17:29.173Z,3.20
2023-02-04T19:20:26.025Z,3.20
2023-02-04T19:22:56.979Z,2.90
2023-02-04T19:25:35.725Z,3.70
2023-02-04T19:28:37.137Z,4.00
2023-02-04T19:31:08.484Z,3.70
2023-02-04T19:33:45.647Z,3.60
2023-02-04T19:36:38.260Z,3.00
2023-02-04T19:39:38.576Z,4.10
2023-02-04T19:42:32.160Z,4.10
2023-02-04T19:45:17.976Z,2.60
2023-02-04T19:47:55.840Z,3.60
2023-02-04T19:50:32.247Z,3.40
2023-02-04T19:53:10.853Z,4.20
2023-02-04T19:55:45.186Z,4.50
2023-02-04T19:58:42.321Z,4.50
2023-02-04T20:01:19.264Z,10.00
2023-02-04T20:03:50.036Z,16.50
2023-02-04T20:06:37.044Z,4.20
2023-02-04T20:09:30.665Z,3.50
2023-02-04T20:12:08.224Z,3.90
2023-02-04T20:14:49.564Z,2.70
2023-02-04T20:17:35.617Z,3.10
2023-02-04T20:20:22.538Z,3.50
2023-02-04T20:22:52.776Z,7.40
2023-02-04T20:25:20.921Z,3.70
2023-02-04T20:27:58.401Z,3.20
2023-02-04T20:30:29.988Z,3.40
2023-02-04T20:33:24.688Z,3.80
2023-02-04T20:35:52.584Z,3.50
2023-02-04T20:38:20.526Z,2.70
2023-02-04T20:40:48.511Z,3.30
2023-02-04T20:43:20.805Z,4.70
2023-02-04T20:45:55.742Z,3.10
2023-02-04T20:48:34.493Z,3.00
2023-02-04T20:51:04.802Z,3.70
2023-02-04T20:53:41.275Z,2.60
2023-02-04T20:56:35.431Z,3.50
2023-02-04T20:59:12.623Z,4.30
2023-02-04T21:01:46.695Z,2.90
2023-02-04T21:04:30.339Z,3.40
2023-02-04T21:07:03.846Z,2.70
2023-02-04T21:09:34.510Z,3.50
2023-02-04T21:12:02.766Z,3.30
2023-02-04T21:14:30.863Z,3.40
2023-02-04T21:16:59.071Z,5.00
2023-02-04T21:19:30.443Z,3.10
2023-02-04T21:21:58.934Z,3.20
2023-02-04T21:24:28.414Z,2.50
2023-02-04T21:26:56.504Z,3.50
2023-02-04T21:29:25.996Z,4.90
2023-02-04T21:31:54.737Z,4.40
2023-02-04T21:34:22.884Z,4.30
2023-02-04T21:36:50.913Z,5.80
2023-02-04T21:39:20.793Z,4.70
2023-02-04T21:42:08.863Z,3.00
2023-02-04T21:44:38.146Z,2.20
2023-02-04T21:47:06.504Z,1.60
2023-02-04T21:49:34.490Z,1.60
2023-02-04T21:52:02.436Z,1.90
2023-02-04T21:54:30.395Z,1.40
2023-02-04T21:57:01.947Z,2.10
2023-02-04T21:59:33.694Z,2.30
2023-02-04T22:02:01.663Z,2.00
2023-02-04T22:04:29.655Z,1.80
2023-02-04T22:06:57.608Z,1.40
2023-02-04T22:09:25.580Z,0.80
2023-02-04T22:11:53.562Z,2.00
2023-02-04T22:14:21.531Z,2.00
2023-02-04T22:16:49.770Z,1.90
2023-02-04T22:19:19.616Z,2.00
2023-02-04T22:21:47.608Z,2.30
2023-02-04T22:24:15.709Z,1.50
2023-02-04T22:26:44.014Z,1.40
2023-02-04T22:29:12.072Z,5.90
2023-02-04T22:31:40.150Z,2.20
2023-02-04T22:34:08.361Z,2.10
2023-02-04T22:36:36.376Z,2.00
2023-02-04T22:39:04.371Z,2.30
2023-02-04T22:41:32.378Z,1.50
2023-02-04T22:44:00.440Z,2.10
2023-02-04T22:46:29.661Z,6.60
2023-02-04T22:48:58.019Z,2.20
2023-02-04T22:51:26.017Z,2.30
2023-02-04T22:53:53.994Z,2.60
2023-02-04T22:56:22.021Z,2.60
2023-02-04T22:58:52.695Z,1.90
2023-02-04T23:01:21.090Z,2.40
2023-02-04T23:03:49.216Z,2.50
2023-02-04T23:06:17.905Z,2.70
2023-02-04T23:08:46.785Z,2.70
2023-02-04T23:11:17.441Z,2.70
2023-02-04T23:13:46.318Z,2.60
2023-02-04T23:16:14.258Z,2.00
2023-02-04T23:18:42.305Z,2.30
2023-02-04T23:21:10.697Z,2.40
2023-02-04T23:23:38.743Z,2.30
2023-02-04T23:26:07.277Z,2.30
2023-02-04T23:28:35.936Z,3.00
2023-02-04T23:31:03.959Z,2.40
2023-02-04T23:33:32.099Z,2.30
2023-02-04T23:36:00.342Z,2.70
2023-02-04T23:38:30.965Z,2.30
2023-02-04T23:41:00.139Z,2.70
2023-02-04T23:43:28.330Z,2.10
2023-02-04T23:45:57.266Z,1.60
2023-02-04T23:48:26.034Z,3.10
2023-02-04T23:50:57.034Z,2.40
2023-02-04T23:53:25.291Z,2.30
2023-02-04T23:55:53.278Z,3.20
2023-02-04T23:58:21.309Z,2.80
